sensor_id;sensor_type;location;lat;lon;timestamp;P1;durP1;ratioP1;P2;durP2;ratioP2
35897;SDS011;21997;47.118;15.346;2023-11-19T00:02:14;5.03;;;4.03;;
35897;SDS011;21997;47.118;15.346;2023-11-19T00:04:39;6.33;;;4.10;;
35897;SDS011;21997;47.118;15.346;2023-11-19T00:07:05;6.17;;;4.20;;
35897;SDS011;21997;47.118;15.346;2023-11-19T00:09:32;7.97;;;4.33;;
35897;SDS011;21997;47.118;15.346;2023-11-19T00:12:02;6.90;;;4.60;;
35897;SDS011;21997;47.118;15.346;2023-11-19T00:14:30;6.07;;;4.17;;
35897;SDS011;21997;47.118;15.346;2023-11-19T00:16:56;4.93;;;4.17;;
35897;SDS011;21997;47.118;15.346;2023-11-19T00:19:21;5.57;;;3.70;;
35897;SDS011;21997;47.118;15.346;2023-11-19T00:21:47;6.00;;;4.00;;
35897;SDS011;21997;47.118;15.346;2023-11-19T00:24:12;6.23;;;4.57;;
35897;SDS011;21997;47.118;15.346;2023-11-19T00:26:41;5.20;;;4.30;;
35897;SDS011;21997;47.118;15.346;2023-11-19T00:29:06;5.73;;;4.20;;
35897;SDS011;21997;47.118;15.346;2023-11-19T00:31:32;9.10;;;4.83;;
35897;SDS011;21997;47.118;15.346;2023-11-19T00:33:57;7.07;;;4.73;;
35897;SDS011;21997;47.118;15.346;2023-11-19T00:36:23;6.87;;;5.07;;
35897;SDS011;21997;47.118;15.346;2023-11-19T00:38:49;7.63;;;5.37;;
35897;SDS011;21997;47.118;15.346;2023-11-19T00:41:15;8.40;;;5.00;;
35897;SDS011;21997;47.118;15.346;2023-11-19T00:43:41;8.83;;;5.43;;
35897;SDS011;21997;47.118;15.346;2023-11-19T00:46:07;6.97;;;4.53;;
35897;SDS011;21997;47.118;15.346;2023-11-19T00:48:32;8.53;;;5.30;;
35897;SDS011;21997;47.118;15.346;2023-11-19T00:50:58;6.67;;;4.43;;
35897;SDS011;21997;47.118;15.346;2023-11-19T00:53:23;7.00;;;4.43;;
35897;SDS011;21997;47.118;15.346;2023-11-19T00:55:48;9.23;;;4.83;;
35897;SDS011;21997;47.118;15.346;2023-11-19T00:58:14;8.17;;;4.33;;
35897;SDS011;21997;47.118;15.346;2023-11-19T01:00:39;7.10;;;4.33;;
35897;SDS011;21997;47.118;15.346;2023-11-19T01:03:05;7.47;;;4.60;;
35897;SDS011;21997;47.118;15.346;2023-11-19T01:05:32;5.77;;;4.57;;
35897;SDS011;21997;47.118;15.346;2023-11-19T01:07:57;7.57;;;4.67;;
35897;SDS011;21997;47.118;15.346;2023-11-19T01:10:23;6.87;;;4.77;;
35897;SDS011;21997;47.118;15.346;2023-11-19T01:12:49;5.60;;;4.53;;
35897;SDS011;21997;47.118;15.346;2023-11-19T01:15:14;4.80;;;4.00;;
35897;SDS011;21997;47.118;15.346;2023-11-19T01:17:40;6.97;;;4.57;;
35897;SDS011;21997;47.118;15.346;2023-11-19T01:20:05;8.07;;;4.50;;
35897;SDS011;21997;47.118;15.346;2023-11-19T01:22:31;5.67;;;4.13;;
35897;SDS011;21997;47.118;15.346;2023-11-19T01:24:57;8.30;;;4.07;;
35897;SDS011;21997;47.118;15.346;2023-11-19T01:27:23;5.63;;;4.17;;
35897;SDS011;21997;47.118;15.346;2023-11-19T01:29:49;5.50;;;3.87;;
35897;SDS011;21997;47.118;15.346;2023-11-19T01:32:14;6.30;;;3.80;;
35897;SDS011;21997;47.118;15.346;2023-11-19T01:34:40;5.90;;;3.93;;
35897;SDS011;21997;47.118;15.346;2023-11-19T01:37:06;7.27;;;4.20;;
35897;SDS011;21997;47.118;15.346;2023-11-19T01:39:31;6.73;;;4.17;;
35897;SDS011;21997;47.118;15.346;2023-11-19T01:41:57;5.47;;;4.07;;
35897;SDS011;21997;47.118;15.346;2023-11-19T01:44:22;6.40;;;4.90;;
35897;SDS011;21997;47.118;15.346;2023-11-19T01:46:47;8.27;;;4.87;;
35897;SDS011;21997;47.118;15.346;2023-11-19T01:49:17;6.40;;;4.43;;
35897;SDS011;21997;47.118;15.346;2023-11-19T01:51:43;7.43;;;4.50;;
35897;SDS011;21997;47.118;15.346;2023-11-19T01:54:08;7.10;;;4.60;;
35897;SDS011;21997;47.118;15.346;2023-11-19T01:56:34;7.80;;;5.03;;
35897;SDS011;21997;47.118;15.346;2023-11-19T01:59:00;7.27;;;4.63;;
35897;SDS011;21997;47.118;15.346;2023-11-19T02:01:26;6.03;;;4.33;;
35897;SDS011;21997;47.118;15.346;2023-11-19T02:03:52;4.87;;;3.53;;
35897;SDS011;21997;47.118;15.346;2023-11-19T02:06:17;5.50;;;4.00;;
35897;SDS011;21997;47.118;15.346;2023-11-19T02:08:43;6.53;;;3.80;;
35897;SDS011;21997;47.118;15.346;2023-11-19T02:11:08;5.27;;;3.80;;
35897;SDS011;21997;47.118;15.346;2023-11-19T02:13:34;5.47;;;4.20;;
35897;SDS011;21997;47.118;15.346;2023-11-19T02:16:01;4.70;;;3.47;;
35897;SDS011;21997;47.118;15.346;2023-11-19T02:18:27;5.40;;;3.73;;
35897;SDS011;21997;47.118;15.346;2023-11-19T02:20:59;4.83;;;3.40;;
35897;SDS011;21997;47.118;15.346;2023-11-19T02:23:26;4.57;;;3.63;;
35897;SDS011;21997;47.118;15.346;2023-11-19T02:28:27;3.97;;;3.50;;
35897;SDS011;21997;47.118;15.346;2023-11-19T02:30:53;5.47;;;3.50;;
35897;SDS011;21997;47.118;15.346;2023-11-19T02:33:18;4.57;;;3.43;;
35897;SDS011;21997;47.118;15.346;2023-11-19T02:35:44;7.17;;;3.80;;
35897;SDS011;21997;47.118;15.346;2023-11-19T02:38:09;4.60;;;3.47;;
35897;SDS011;21997;47.118;15.346;2023-11-19T02:40:35;5.90;;;3.60;;
35897;SDS011;21997;47.118;15.346;2023-11-19T02:43:01;3.80;;;3.10;;
35897;SDS011;21997;47.118;15.346;2023-11-19T02:45:29;4.33;;;3.40;;
35897;SDS011;21997;47.118;15.346;2023-11-19T02:47:56;5.27;;;3.90;;
35897;SDS011;21997;47.118;15.346;2023-11-19T02:50:21;5.13;;;3.77;;
35897;SDS011;21997;47.118;15.346;2023-11-19T02:52:51;3.77;;;3.37;;
35897;SDS011;21997;47.118;15.346;2023-11-19T02:55:17;4.50;;;3.63;;
35897;SDS011;21997;47.118;15.346;2023-11-19T02:57:43;4.80;;;3.33;;
35897;SDS011;21997;47.118;15.346;2023-11-19T03:00:22;4.03;;;3.50;;
35897;SDS011;21997;47.118;15.346;2023-11-19T03:03:00;5.13;;;3.30;;
35897;SDS011;21997;47.118;15.346;2023-11-19T03:05:42;7.50;;;4.43;;
35897;SDS011;21997;47.118;15.346;2023-11-19T03:08:09;3.77;;;3.40;;
35897;SDS011;21997;47.118;15.346;2023-11-19T03:10:35;5.43;;;4.07;;
35897;SDS011;21997;47.118;15.346;2023-11-19T03:13:00;5.37;;;3.67;;
35897;SDS011;21997;47.118;15.346;2023-11-19T03:15:27;5.33;;;3.60;;
35897;SDS011;21997;47.118;15.346;2023-11-19T03:17:53;5.13;;;3.23;;
35897;SDS011;21997;47.118;15.346;2023-11-19T03:20:19;5.23;;;3.20;;
35897;SDS011;21997;47.118;15.346;2023-11-19T03:22:46;4.63;;;3.60;;
35897;SDS011;21997;47.118;15.346;2023-11-19T03:25:11;4.23;;;3.50;;
35897;SDS011;21997;47.118;15.346;2023-11-19T03:27:38;5.53;;;3.03;;
35897;SDS011;21997;47.118;15.346;2023-11-19T03:30:07;4.47;;;3.17;;
35897;SDS011;21997;47.118;15.346;2023-11-19T03:32:34;3.63;;;2.70;;
35897;SDS011;21997;47.118;15.346;2023-11-19T03:35:00;3.00;;;2.30;;
35897;SDS011;21997;47.118;15.346;2023-11-19T03:37:26;2.93;;;2.37;;
35897;SDS011;21997;47.118;15.346;2023-11-19T03:39:53;3.70;;;2.80;;
35897;SDS011;21997;47.118;15.346;2023-11-19T03:42:19;6.17;;;3.13;;
35897;SDS011;21997;47.118;15.346;2023-11-19T03:44:45;4.03;;;2.90;;
35897;SDS011;21997;47.118;15.346;2023-11-19T03:47:11;3.63;;;2.50;;
35897;SDS011;21997;47.118;15.346;2023-11-19T03:49:36;3.53;;;2.60;;
35897;SDS011;21997;47.118;15.346;2023-11-19T03:52:02;3.73;;;2.40;;
35897;SDS011;21997;47.118;15.346;2023-11-19T03:54:27;2.90;;;2.13;;
35897;SDS011;21997;47.118;15.346;2023-11-19T03:56:53;3.67;;;2.53;;
35897;SDS011;21997;47.118;15.346;2023-11-19T03:59:18;3.30;;;2.50;;
35897;SDS011;21997;47.118;15.346;2023-11-19T04:01:45;2.43;;;2.20;;
35897;SDS011;21997;47.118;15.346;2023-11-19T04:04:11;6.47;;;3.00;;
35897;SDS011;21997;47.118;15.346;2023-11-19T04:06:36;3.27;;;2.77;;
35897;SDS011;21997;47.118;15.346;2023-11-19T04:09:01;5.93;;;3.20;;
35897;SDS011;21997;47.118;15.346;2023-11-19T04:11:27;4.77;;;2.97;;
35897;SDS011;21997;47.118;15.346;2023-11-19T04:13:52;4.63;;;3.30;;
35897;SDS011;21997;47.118;15.346;2023-11-19T04:16:18;5.23;;;3.93;;
35897;SDS011;21997;47.118;15.346;2023-11-19T04:18:43;4.63;;;3.73;;
35897;SDS011;21997;47.118;15.346;2023-11-19T04:21:09;6.20;;;4.47;;
35897;SDS011;21997;47.118;15.346;2023-11-19T04:23:34;6.43;;;4.17;;
35897;SDS011;21997;47.118;15.346;2023-11-19T04:26:03;4.70;;;3.67;;
35897;SDS011;21997;47.118;15.346;2023-11-19T04:28:29;5.17;;;3.77;;
35897;SDS011;21997;47.118;15.346;2023-11-19T04:30:55;4.67;;;3.67;;
35897;SDS011;21997;47.118;15.346;2023-11-19T04:33:21;5.13;;;3.87;;
35897;SDS011;21997;47.118;15.346;2023-11-19T04:35:46;3.93;;;3.50;;
35897;SDS011;21997;47.118;15.346;2023-11-19T04:38:12;6.37;;;3.93;;
35897;SDS011;21997;47.118;15.346;2023-11-19T04:40:37;4.77;;;3.30;;
35897;SDS011;21997;47.118;15.346;2023-11-19T04:43:03;5.07;;;3.73;;
35897;SDS011;21997;47.118;15.346;2023-11-19T04:45:29;5.33;;;4.23;;
35897;SDS011;21997;47.118;15.346;2023-11-19T04:47:55;6.03;;;3.60;;
35897;SDS011;21997;47.118;15.346;2023-11-19T04:50:20;5.13;;;3.60;;
35897;SDS011;21997;47.118;15.346;2023-11-19T04:52:45;4.33;;;3.40;;
35897;SDS011;21997;47.118;15.346;2023-11-19T04:55:12;4.70;;;3.10;;
35897;SDS011;21997;47.118;15.346;2023-11-19T04:57:39;3.17;;;2.57;;
35897;SDS011;21997;47.118;15.346;2023-11-19T05:00:05;4.97;;;3.37;;
35897;SDS011;21997;47.118;15.346;2023-11-19T05:02:31;4.57;;;3.33;;
35897;SDS011;21997;47.118;15.346;2023-11-19T05:04:56;4.80;;;3.57;;
35897;SDS011;21997;47.118;15.346;2023-11-19T05:07:22;3.97;;;2.97;;
35897;SDS011;21997;47.118;15.346;2023-11-19T05:09:47;4.47;;;3.27;;
35897;SDS011;21997;47.118;15.346;2023-11-19T05:12:13;4.93;;;3.50;;
35897;SDS011;21997;47.118;15.346;2023-11-19T05:14:38;5.40;;;3.50;;
35897;SDS011;21997;47.118;15.346;2023-11-19T05:17:04;4.47;;;3.10;;
35897;SDS011;21997;47.118;15.346;2023-11-19T05:19:29;4.53;;;3.80;;
35897;SDS011;21997;47.118;15.346;2023-11-19T05:21:54;4.80;;;3.63;;
35897;SDS011;21997;47.118;15.346;2023-11-19T05:24:20;6.53;;;3.33;;
35897;SDS011;21997;47.118;15.346;2023-11-19T05:26:45;3.83;;;3.10;;
35897;SDS011;21997;47.118;15.346;2023-11-19T05:29:12;4.93;;;3.20;;
35897;SDS011;21997;47.118;15.346;2023-11-19T05:31:37;3.97;;;3.37;;
35897;SDS011;21997;47.118;15.346;2023-11-19T05:34:02;6.97;;;3.37;;
35897;SDS011;21997;47.118;15.346;2023-11-19T05:36:28;5.23;;;3.63;;
35897;SDS011;21997;47.118;15.346;2023-11-19T05:38:54;4.20;;;3.30;;
35897;SDS011;21997;47.118;15.346;2023-11-19T05:41:19;6.03;;;3.50;;
35897;SDS011;21997;47.118;15.346;2023-11-19T05:43:45;5.47;;;3.20;;
35897;SDS011;21997;47.118;15.346;2023-11-19T05:46:11;3.53;;;3.10;;
35897;SDS011;21997;47.118;15.346;2023-11-19T05:48:38;3.50;;;2.83;;
35897;SDS011;21997;47.118;15.346;2023-11-19T05:51:03;3.13;;;2.83;;
35897;SDS011;21997;47.118;15.346;2023-11-19T05:53:30;5.70;;;3.00;;
35897;SDS011;21997;47.118;15.346;2023-11-19T05:55:56;3.70;;;3.10;;
35897;SDS011;21997;47.118;15.346;2023-11-19T05:58:25;6.77;;;3.50;;
35897;SDS011;21997;47.118;15.346;2023-11-19T06:00:51;4.43;;;3.27;;
35897;SDS011;21997;47.118;15.346;2023-11-19T06:03:17;4.17;;;3.27;;
35897;SDS011;21997;47.118;15.346;2023-11-19T06:05:46;3.80;;;3.17;;
35897;SDS011;21997;47.118;15.346;2023-11-19T06:08:11;5.07;;;3.23;;
35897;SDS011;21997;47.118;15.346;2023-11-19T06:10:38;3.40;;;2.90;;
35897;SDS011;21997;47.118;15.346;2023-11-19T06:13:04;4.73;;;3.30;;
35897;SDS011;21997;47.118;15.346;2023-11-19T06:15:30;3.73;;;3.20;;
35897;SDS011;21997;47.118;15.346;2023-11-19T06:17:57;7.10;;;3.10;;
35897;SDS011;21997;47.118;15.346;2023-11-19T06:20:24;3.50;;;3.13;;
35897;SDS011;21997;47.118;15.346;2023-11-19T06:22:50;4.80;;;3.27;;
35897;SDS011;21997;47.118;15.346;2023-11-19T06:25:15;3.53;;;2.63;;
35897;SDS011;21997;47.118;15.346;2023-11-19T06:27:41;4.23;;;3.33;;
35897;SDS011;21997;47.118;15.346;2023-11-19T06:30:07;4.77;;;3.50;;
35897;SDS011;21997;47.118;15.346;2023-11-19T06:32:33;3.77;;;3.13;;
35897;SDS011;21997;47.118;15.346;2023-11-19T06:34:59;4.23;;;3.23;;
35897;SDS011;21997;47.118;15.346;2023-11-19T06:37:24;5.17;;;3.33;;
35897;SDS011;21997;47.118;15.346;2023-11-19T06:39:49;4.93;;;3.93;;
35897;SDS011;21997;47.118;15.346;2023-11-19T06:42:15;5.60;;;3.07;;
35897;SDS011;21997;47.118;15.346;2023-11-19T06:44:41;4.17;;;3.40;;
35897;SDS011;21997;47.118;15.346;2023-11-19T06:47:06;4.50;;;3.43;;
35897;SDS011;21997;47.118;15.346;2023-11-19T06:49:31;4.20;;;3.10;;
35897;SDS011;21997;47.118;15.346;2023-11-19T06:51:57;4.13;;;3.40;;
35897;SDS011;21997;47.118;15.346;2023-11-19T06:54:23;5.13;;;3.73;;
35897;SDS011;21997;47.118;15.346;2023-11-19T06:56:49;5.33;;;3.30;;
35897;SDS011;21997;47.118;15.346;2023-11-19T06:59:15;5.80;;;3.13;;
35897;SDS011;21997;47.118;15.346;2023-11-19T07:01:40;4.53;;;2.87;;
35897;SDS011;21997;47.118;15.346;2023-11-19T07:04:07;4.47;;;3.77;;
35897;SDS011;21997;47.118;15.346;2023-11-19T07:06:34;4.30;;;3.23;;
35897;SDS011;21997;47.118;15.346;2023-11-19T07:09:00;4.87;;;3.40;;
35897;SDS011;21997;47.118;15.346;2023-11-19T07:11:34;8.17;;;3.77;;
35897;SDS011;21997;47.118;15.346;2023-11-19T07:14:09;5.47;;;4.27;;
35897;SDS011;21997;47.118;15.346;2023-11-19T07:16:34;5.33;;;3.90;;
35897;SDS011;21997;47.118;15.346;2023-11-19T07:19:02;5.27;;;3.90;;
35897;SDS011;21997;47.118;15.346;2023-11-19T07:21:28;4.60;;;4.03;;
35897;SDS011;21997;47.118;15.346;2023-11-19T07:23:54;5.30;;;3.60;;
35897;SDS011;21997;47.118;15.346;2023-11-19T07:26:20;6.60;;;4.40;;
35897;SDS011;21997;47.118;15.346;2023-11-19T07:28:45;4.17;;;3.43;;
35897;SDS011;21997;47.118;15.346;2023-11-19T07:31:11;4.77;;;3.63;;
35897;SDS011;21997;47.118;15.346;2023-11-19T07:33:37;6.37;;;4.30;;
35897;SDS011;21997;47.118;15.346;2023-11-19T07:36:04;4.40;;;3.30;;
35897;SDS011;21997;47.118;15.346;2023-11-19T07:38:31;5.83;;;3.30;;
35897;SDS011;21997;47.118;15.346;2023-11-19T07:40:57;6.67;;;4.27;;
35897;SDS011;21997;47.118;15.346;2023-11-19T07:43:22;4.97;;;3.50;;
35897;SDS011;21997;47.118;15.346;2023-11-19T07:45:48;5.00;;;3.80;;
35897;SDS011;21997;47.118;15.346;2023-11-19T07:48:13;6.03;;;3.37;;
35897;SDS011;21997;47.118;15.346;2023-11-19T07:50:39;3.67;;;3.20;;
35897;SDS011;21997;47.118;15.346;2023-11-19T07:53:06;7.07;;;4.03;;
35897;SDS011;21997;47.118;15.346;2023-11-19T07:55:32;4.37;;;3.33;;
35897;SDS011;21997;47.118;15.346;2023-11-19T07:57:58;5.33;;;3.00;;
35897;SDS011;21997;47.118;15.346;2023-11-19T08:00:24;4.77;;;3.40;;
35897;SDS011;21997;47.118;15.346;2023-11-19T08:02:49;3.97;;;3.10;;
35897;SDS011;21997;47.118;15.346;2023-11-19T08:05:15;3.80;;;2.83;;
35897;SDS011;21997;47.118;15.346;2023-11-19T08:07:41;3.40;;;2.67;;
35897;SDS011;21997;47.118;15.346;2023-11-19T08:10:07;2.97;;;2.63;;
35897;SDS011;21997;47.118;15.346;2023-11-19T08:12:36;3.63;;;3.00;;
35897;SDS011;21997;47.118;15.346;2023-11-19T08:15:04;3.20;;;2.73;;
35897;SDS011;21997;47.118;15.346;2023-11-19T08:17:30;2.70;;;2.50;;
35897;SDS011;21997;47.118;15.346;2023-11-19T08:19:55;2.53;;;2.33;;
35897;SDS011;21997;47.118;15.346;2023-11-19T08:22:21;3.70;;;2.43;;
35897;SDS011;21997;47.118;15.346;2023-11-19T08:24:47;3.67;;;2.40;;
35897;SDS011;21997;47.118;15.346;2023-11-19T08:27:13;4.30;;;2.40;;
35897;SDS011;21997;47.118;15.346;2023-11-19T08:29:38;2.57;;;2.17;;
35897;SDS011;21997;47.118;15.346;2023-11-19T08:32:04;5.50;;;3.20;;
35897;SDS011;21997;47.118;15.346;2023-11-19T08:34:30;2.77;;;2.37;;
35897;SDS011;21997;47.118;15.346;2023-11-19T08:36:55;4.07;;;2.40;;
35897;SDS011;21997;47.118;15.346;2023-11-19T08:39:21;3.90;;;2.47;;
35897;SDS011;21997;47.118;15.346;2023-11-19T08:41:49;5.03;;;2.30;;
35897;SDS011;21997;47.118;15.346;2023-11-19T08:44:15;3.67;;;2.30;;
35897;SDS011;21997;47.118;15.346;2023-11-19T08:46:48;3.87;;;2.07;;
35897;SDS011;21997;47.118;15.346;2023-11-19T08:49:16;2.63;;;2.20;;
35897;SDS011;21997;47.118;15.346;2023-11-19T08:51:43;3.57;;;2.33;;
35897;SDS011;21997;47.118;15.346;2023-11-19T08:54:09;2.13;;;1.93;;
35897;SDS011;21997;47.118;15.346;2023-11-19T08:56:35;2.73;;;2.20;;
35897;SDS011;21997;47.118;15.346;2023-11-19T08:59:01;2.80;;;2.00;;
35897;SDS011;21997;47.118;15.346;2023-11-19T09:01:26;1.93;;;1.73;;
35897;SDS011;21997;47.118;15.346;2023-11-19T09:03:52;2.53;;;1.93;;
35897;SDS011;21997;47.118;15.346;2023-11-19T09:06:17;2.00;;;1.87;;
35897;SDS011;21997;47.118;15.346;2023-11-19T09:08:43;3.43;;;1.53;;
35897;SDS011;21997;47.118;15.346;2023-11-19T09:11:08;3.50;;;1.50;;
35897;SDS011;21997;47.118;15.346;2023-11-19T09:13:34;1.90;;;1.60;;
35897;SDS011;21997;47.118;15.346;2023-11-19T09:16:02;2.57;;;1.93;;
35897;SDS011;21997;47.118;15.346;2023-11-19T09:18:31;2.83;;;2.07;;
35897;SDS011;21997;47.118;15.346;2023-11-19T09:20:57;3.13;;;2.17;;
35897;SDS011;21997;47.118;15.346;2023-11-19T09:23:23;2.83;;;1.93;;
35897;SDS011;21997;47.118;15.346;2023-11-19T09:25:50;2.30;;;1.77;;
35897;SDS011;21997;47.118;15.346;2023-11-19T09:28:15;2.53;;;1.93;;
35897;SDS011;21997;47.118;15.346;2023-11-19T09:30:41;1.93;;;1.60;;
35897;SDS011;21997;47.118;15.346;2023-11-19T09:33:06;2.93;;;2.30;;
35897;SDS011;21997;47.118;15.346;2023-11-19T09:35:31;2.80;;;1.90;;
35897;SDS011;21997;47.118;15.346;2023-11-19T09:37:57;2.93;;;2.40;;
35897;SDS011;21997;47.118;15.346;2023-11-19T09:40:24;2.63;;;1.93;;
35897;SDS011;21997;47.118;15.346;2023-11-19T09:42:49;2.87;;;2.07;;
35897;SDS011;21997;47.118;15.346;2023-11-19T09:45:16;2.57;;;2.00;;
35897;SDS011;21997;47.118;15.346;2023-11-19T09:47:44;2.67;;;1.77;;
35897;SDS011;21997;47.118;15.346;2023-11-19T09:50:17;2.30;;;1.93;;
35897;SDS011;21997;47.118;15.346;2023-11-19T09:52:44;4.40;;;2.27;;
35897;SDS011;21997;47.118;15.346;2023-11-19T09:55:10;5.10;;;1.70;;
35897;SDS011;21997;47.118;15.346;2023-11-19T09:57:36;2.10;;;1.80;;
35897;SDS011;21997;47.118;15.346;2023-11-19T10:00:03;2.83;;;1.80;;
35897;SDS011;21997;47.118;15.346;2023-11-19T10:02:33;2.17;;;1.80;;
35897;SDS011;21997;47.118;15.346;2023-11-19T10:05:11;2.77;;;1.93;;
35897;SDS011;21997;47.118;15.346;2023-11-19T10:07:38;3.03;;;2.10;;
35897;SDS011;21997;47.118;15.346;2023-11-19T10:10:04;2.90;;;2.10;;
35897;SDS011;21997;47.118;15.346;2023-11-19T10:12:30;2.87;;;2.20;;
35897;SDS011;21997;47.118;15.346;2023-11-19T10:14:56;2.30;;;1.90;;
35897;SDS011;21997;47.118;15.346;2023-11-19T10:17:26;2.80;;;1.60;;
35897;SDS011;21997;47.118;15.346;2023-11-19T10:19:58;1.50;;;1.40;;
35897;SDS011;21997;47.118;15.346;2023-11-19T10:22:24;1.77;;;1.67;;
35897;SDS011;21997;47.118;15.346;2023-11-19T10:24:50;1.77;;;1.40;;
35897;SDS011;21997;47.118;15.346;2023-11-19T10:27:15;3.33;;;2.20;;
35897;SDS011;21997;47.118;15.346;2023-11-19T10:29:43;4.17;;;2.17;;
35897;SDS011;21997;47.118;15.346;2023-11-19T10:32:10;2.80;;;1.97;;
35897;SDS011;21997;47.118;15.346;2023-11-19T10:34:37;3.27;;;2.17;;
35897;SDS011;21997;47.118;15.346;2023-11-19T10:37:04;2.07;;;1.70;;
35897;SDS011;21997;47.118;15.346;2023-11-19T10:42:19;1.93;;;1.53;;
35897;SDS011;21997;47.118;15.346;2023-11-19T10:44:45;1.53;;;1.43;;
35897;SDS011;21997;47.118;15.346;2023-11-19T10:47:11;2.07;;;1.70;;
35897;SDS011;21997;47.118;15.346;2023-11-19T10:49:37;2.40;;;1.80;;
35897;SDS011;21997;47.118;15.346;2023-11-19T10:52:03;2.23;;;1.80;;
35897;SDS011;21997;47.118;15.346;2023-11-19T10:54:30;3.17;;;1.77;;
35897;SDS011;21997;47.118;15.346;2023-11-19T10:56:58;2.80;;;2.00;;
35897;SDS011;21997;47.118;15.346;2023-11-19T10:59:27;2.57;;;1.90;;
35897;SDS011;21997;47.118;15.346;2023-11-19T11:01:54;3.07;;;1.70;;
35897;SDS011;21997;47.118;15.346;2023-11-19T11:04:24;2.87;;;1.97;;
35897;SDS011;21997;47.118;15.346;2023-11-19T11:06:56;2.40;;;1.97;;
35897;SDS011;21997;47.118;15.346;2023-11-19T11:09:25;2.70;;;1.93;;
35897;SDS011;21997;47.118;15.346;2023-11-19T11:11:51;2.40;;;1.73;;
35897;SDS011;21997;47.118;15.346;2023-11-19T11:14:18;3.60;;;1.87;;
35897;SDS011;21997;47.118;15.346;2023-11-19T11:16:44;2.63;;;2.07;;
35897;SDS011;21997;47.118;15.346;2023-11-19T11:19:10;4.63;;;1.73;;
35897;SDS011;21997;47.118;15.346;2023-11-19T11:21:37;3.23;;;2.27;;
35897;SDS011;21997;47.118;15.346;2023-11-19T11:30:11;3.47;;;2.20;;
35897;SDS011;21997;47.118;15.346;2023-11-19T11:38:11;2.23;;;1.90;;
35897;SDS011;21997;47.118;15.346;2023-11-19T11:40:39;2.40;;;1.87;;
35897;SDS011;21997;47.118;15.346;2023-11-19T11:43:09;2.50;;;2.20;;
35897;SDS011;21997;47.118;15.346;2023-11-19T11:46:09;2.60;;;2.23;;
35897;SDS011;21997;47.118;15.346;2023-11-19T11:48:34;6.37;;;4.10;;
35897;SDS011;21997;47.118;15.346;2023-11-19T11:51:00;9.17;;;6.67;;
35897;SDS011;21997;47.118;15.346;2023-11-19T11:53:25;2.70;;;2.30;;
35897;SDS011;21997;47.118;15.346;2023-11-19T12:00:46;3.40;;;2.07;;
35897;SDS011;21997;47.118;15.346;2023-11-19T12:03:12;2.70;;;2.20;;
35897;SDS011;21997;47.118;15.346;2023-11-19T12:05:41;1.80;;;1.70;;
35897;SDS011;21997;47.118;15.346;2023-11-19T12:08:09;1.93;;;1.70;;
35897;SDS011;21997;47.118;15.346;2023-11-19T12:10:37;2.70;;;1.67;;
35897;SDS011;21997;47.118;15.346;2023-11-19T12:13:09;2.13;;;1.58;;
35897;SDS011;21997;47.118;15.346;2023-11-19T12:18:21;2.47;;;1.75;;
35897;SDS011;21997;47.118;15.346;2023-11-19T12:20:48;2.40;;;1.50;;
35897;SDS011;21997;47.118;15.346;2023-11-19T12:23:13;2.42;;;1.92;;
35897;SDS011;21997;47.118;15.346;2023-11-19T12:25:39;4.15;;;3.67;;
35897;SDS011;21997;47.118;15.346;2023-11-19T12:28:05;2.58;;;2.38;;
35897;SDS011;21997;47.118;15.346;2023-11-19T12:30:31;4.53;;;2.90;;
35897;SDS011;21997;47.118;15.346;2023-11-19T12:32:56;2.63;;;2.38;;
35897;SDS011;21997;47.118;15.346;2023-11-19T12:35:22;2.53;;;1.60;;
35897;SDS011;21997;47.118;15.346;2023-11-19T12:37:49;2.80;;;2.45;;
35897;SDS011;21997;47.118;15.346;2023-11-19T12:40:19;1.95;;;1.80;;
35897;SDS011;21997;47.118;15.346;2023-11-19T12:42:49;4.53;;;3.55;;
35897;SDS011;21997;47.118;15.346;2023-11-19T12:45:15;4.30;;;3.50;;
35897;SDS011;21997;47.118;15.346;2023-11-19T12:47:42;4.53;;;3.08;;
35897;SDS011;21997;47.118;15.346;2023-11-19T12:50:08;2.22;;;1.65;;
35897;SDS011;21997;47.118;15.346;2023-11-19T12:52:37;1.60;;;1.40;;
35897;SDS011;21997;47.118;15.346;2023-11-19T12:55:04;1.40;;;1.23;;
35897;SDS011;21997;47.118;15.346;2023-11-19T12:57:38;1.75;;;1.50;;
35897;SDS011;21997;47.118;15.346;2023-11-19T13:00:05;1.92;;;1.38;;
35897;SDS011;21997;47.118;15.346;2023-11-19T13:02:50;1.27;;;1.17;;
35897;SDS011;21997;47.118;15.346;2023-11-19T13:08:07;2.33;;;1.67;;
35897;SDS011;21997;47.118;15.346;2023-11-19T13:13:14;1.73;;;1.50;;
35897;SDS011;21997;47.118;15.346;2023-11-19T13:15:40;3.42;;;1.50;;
35897;SDS011;21997;47.118;15.346;2023-11-19T13:18:05;2.70;;;2.33;;
35897;SDS011;21997;47.118;15.346;2023-11-19T13:20:31;4.20;;;3.10;;
35897;SDS011;21997;47.118;15.346;2023-11-19T13:22:59;4.18;;;2.70;;
35897;SDS011;21997;47.118;15.346;2023-11-19T13:25:28;4.07;;;3.00;;
35897;SDS011;21997;47.118;15.346;2023-11-19T13:27:55;4.82;;;2.83;;
35897;SDS011;21997;47.118;15.346;2023-11-19T13:30:21;3.10;;;2.20;;
35897;SDS011;21997;47.118;15.346;2023-11-19T13:32:50;3.15;;;2.67;;
35897;SDS011;21997;47.118;15.346;2023-11-19T13:35:16;4.18;;;2.80;;
35897;SDS011;21997;47.118;15.346;2023-11-19T13:37:42;3.08;;;2.30;;
35897;SDS011;21997;47.118;15.346;2023-11-19T13:40:07;5.05;;;2.40;;
35897;SDS011;21997;47.118;15.346;2023-11-19T13:42:35;3.55;;;2.95;;
35897;SDS011;21997;47.118;15.346;2023-11-19T13:45:02;3.42;;;3.05;;
35897;SDS011;21997;47.118;15.346;2023-11-19T13:47:28;2.97;;;2.63;;
35897;SDS011;21997;47.118;15.346;2023-11-19T13:49:53;3.47;;;2.90;;
35897;SDS011;21997;47.118;15.346;2023-11-19T13:52:19;6.88;;;3.35;;
35897;SDS011;21997;47.118;15.346;2023-11-19T13:54:44;3.57;;;2.97;;
35897;SDS011;21997;47.118;15.346;2023-11-19T13:57:10;3.50;;;3.20;;
35897;SDS011;21997;47.118;15.346;2023-11-19T13:59:39;16.27;;;13.47;;
35897;SDS011;21997;47.118;15.346;2023-11-19T14:02:05;8.00;;;7.20;;
35897;SDS011;21997;47.118;15.346;2023-11-19T14:04:32;4.50;;;3.70;;
35897;SDS011;21997;47.118;15.346;2023-11-19T14:06:58;4.30;;;3.03;;
35897;SDS011;21997;47.118;15.346;2023-11-19T14:09:24;6.73;;;2.63;;
35897;SDS011;21997;47.118;15.346;2023-11-19T14:11:49;3.50;;;3.10;;
35897;SDS011;21997;47.118;15.346;2023-11-19T14:14:16;4.40;;;3.60;;
35897;SDS011;21997;47.118;15.346;2023-11-19T14:16:41;3.97;;;3.00;;
35897;SDS011;21997;47.118;15.346;2023-11-19T14:19:07;5.47;;;3.40;;
35897;SDS011;21997;47.118;15.346;2023-11-19T14:21:33;5.43;;;4.27;;
35897;SDS011;21997;47.118;15.346;2023-11-19T14:23:58;7.03;;;3.60;;
35897;SDS011;21997;47.118;15.346;2023-11-19T14:26:24;7.60;;;5.37;;
35897;SDS011;21997;47.118;15.346;2023-11-19T14:28:49;13.07;;;8.60;;
35897;SDS011;21997;47.118;15.346;2023-11-19T14:31:14;8.73;;;6.43;;
35897;SDS011;21997;47.118;15.346;2023-11-19T14:33:40;7.67;;;5.07;;
35897;SDS011;21997;47.118;15.346;2023-11-19T14:36:06;6.83;;;4.67;;
35897;SDS011;21997;47.118;15.346;2023-11-19T14:38:32;6.63;;;4.60;;
35897;SDS011;21997;47.118;15.346;2023-11-19T14:40:59;7.23;;;3.43;;
35897;SDS011;21997;47.118;15.346;2023-11-19T14:43:25;3.83;;;2.87;;
35897;SDS011;21997;47.118;15.346;2023-11-19T14:45:51;4.40;;;3.07;;
35897;SDS011;21997;47.118;15.346;2023-11-19T14:48:17;3.60;;;2.97;;
35897;SDS011;21997;47.118;15.346;2023-11-19T14:50:43;5.93;;;4.47;;
35897;SDS011;21997;47.118;15.346;2023-11-19T14:53:09;5.67;;;4.37;;
35897;SDS011;21997;47.118;15.346;2023-11-19T14:55:36;5.50;;;4.30;;
35897;SDS011;21997;47.118;15.346;2023-11-19T14:58:01;7.07;;;5.20;;
35897;SDS011;21997;47.118;15.346;2023-11-19T15:00:27;11.10;;;6.53;;